Time;durP1;ratioP1;P1;durP2;ratioP2;P2;SDS_P1;SDS_P2;PMS_P1;PMS_P2;Temp;Humidity;BMP_temperature;BMP_pressure;BME280_temperature;BME280_humidity;BME280_pressure;Samples;Min_cycle;Max_cycle;Signal;HPM_P1;HPM_P2
2023/01/18 00:00:18;;;;;;;1.87;1.70;;;;;;;;;;5080208;28;20206;-63
2023/01/18 00:02:48;;;;;;;2.13;1.93;;;;;;;;;;5080277;28;20217;-63
2023/01/18 00:05:16;;;;;;;4.70;3.40;;;;;;;;;;5079770;28;20202;-63
2023/01/18 00:07:44;;;;;;;4.47;2.20;;;;;;;;;;5080353;28;20203;-63
2023/01/18 00:10:13;;;;;;;2.13;1.93;;;;;;;;;;5080401;28;20245;-63
2023/01/18 00:12:41;;;;;;;2.20;2.00;;;;;;;;;;5079903;28;20719;-63
2023/01/18 00:15:10;;;;;;;1.73;1.60;;;;;;;;;;5080244;28;20237;-63
2023/01/18 00:17:46;;;;;;;2.73;2.00;;;;;;;;;;5079929;28;20271;-63
2023/01/18 00:20:14;;;;;;;2.73;1.90;;;;;;;;;;5079721;28;20241;-63
2023/01/18 00:22:42;;;;;;;2.17;1.80;;;;;;;;;;5080058;28;20226;-63
2023/01/18 00:25:10;;;;;;;2.17;1.97;;;;;;;;;;5079987;28;20290;-63
2023/01/18 00:27:40;;;;;;;2.67;2.00;;;;;;;;;;5080106;28;20202;-63
2023/01/18 00:30:09;;;;;;;2.43;2.10;;;;;;;;;;5080001;28;20263;-63
2023/01/18 00:32:37;;;;;;;3.20;2.00;;;;;;;;;;5079824;28;20240;-63
2023/01/18 00:35:07;;;;;;;4.93;2.13;;;;;;;;;;5079238;28;20281;-63
2023/01/18 00:37:35;;;;;;;3.00;2.20;;;;;;;;;;5079814;28;20276;-63
2023/01/18 00:40:03;;;;;;;2.60;1.97;;;;;;;;;;5079514;28;20577;-64
2023/01/18 00:45:19;;;;;;;3.40;1.87;;;;;;;;;;5079649;28;20198;-63
2023/01/18 00:47:47;;;;;;;3.37;1.70;;;;;;;;;;5079451;28;20564;-63
2023/01/18 00:50:15;;;;;;;2.80;2.17;;;;;;;;;;5079597;28;20206;-63
2023/01/18 00:52:45;;;;;;;2.83;1.80;;;;;;;;;;5079413;28;20279;-63
2023/01/18 00:55:13;;;;;;;2.93;2.10;;;;;;;;;;5079118;28;20308;-63
2023/01/18 00:57:42;;;;;;;1.93;1.83;;;;;;;;;;5079128;28;20217;-63
2023/01/18 01:00:14;;;;;;;2.17;1.97;;;;;;;;;;5079056;28;20259;-63
2023/01/18 01:02:43;;;;;;;2.40;2.03;;;;;;;;;;5079205;28;20222;-63
2023/01/18 01:08:02;;;;;;;6.33;3.57;;;;;;;;;;5078937;28;20447;-63
2023/01/18 01:10:30;;;;;;;11.30;6.33;;;;;;;;;;5079115;28;20451;-63
2023/01/18 01:26:47;;;;;;;3.33;2.17;;;;;;;;;;5079034;28;20205;-63
2023/01/18 01:29:15;;;;;;;3.60;2.87;;;;;;;;;;5078851;28;20206;-63
2023/01/18 01:31:43;;;;;;;4.93;2.80;;;;;;;;;;5078725;28;20440;-63
2023/01/18 01:34:13;;;;;;;4.43;3.60;;;;;;;;;;5078285;28;20484;-63
2023/01/18 01:36:41;;;;;;;5.47;3.47;;;;;;;;;;5078322;28;20516;-63
2023/01/18 01:39:09;;;;;;;3.07;2.77;;;;;;;;;;5077706;28;20444;-63
2023/01/18 01:41:38;;;;;;;4.33;3.30;;;;;;;;;;5071701;28;20469;-63
2023/01/18 01:44:23;;;;;;;4.27;2.77;;;;;;;;;;5074327;28;20460;-63
2023/01/18 01:46:52;;;;;;;4.57;3.00;;;;;;;;;;5066779;28;20629;-63
2023/01/18 01:49:25;;;;;;;4.07;3.10;;;;;;;;;;5077190;28;20440;-63
2023/01/18 01:51:55;;;;;;;4.20;3.10;;;;;;;;;;5076287;28;20445;-63
2023/01/18 01:54:25;;;;;;;3.13;2.63;;;;;;;;;;5073701;28;20484;-63
2023/01/18 01:56:56;;;;;;;4.47;2.73;;;;;;;;;;5066791;28;21244;-63
2023/01/18 01:59:24;;;;;;;3.30;2.23;;;;;;;;;;5073606;28;20499;-63
2023/01/18 02:01:52;;;;;;;3.10;2.47;;;;;;;;;;5068041;28;20444;-63
2023/01/18 02:04:22;;;;;;;5.70;2.70;;;;;;;;;;5074148;28;20551;-63
2023/01/18 02:06:50;;;;;;;3.47;2.40;;;;;;;;;;5071264;28;20453;-63
2023/01/18 02:09:22;;;;;;;2.43;2.20;;;;;;;;;;5064295;28;20440;-63
2023/01/18 02:11:50;;;;;;;3.63;2.37;;;;;;;;;;5077337;28;20445;-63
2023/01/18 02:14:20;;;;;;;5.73;2.67;;;;;;;;;;5067720;28;21263;-63
2023/01/18 02:16:56;;;;;;;6.27;3.43;;;;;;;;;;5067899;28;20541;-63
2023/01/18 02:19:33;;;;;;;7.57;3.83;;;;;;;;;;5072826;28;20444;-63
2023/01/18 02:22:07;;;;;;;7.47;4.00;;;;;;;;;;5073300;28;20687;-63
2023/01/18 02:24:54;;;;;;;7.33;3.97;;;;;;;;;;5066414;28;20468;-63
2023/01/18 02:27:25;;;;;;;5.57;3.93;;;;;;;;;;5067471;28;20489;-63
2023/01/18 02:30:01;;;;;;;5.47;3.10;;;;;;;;;;5076654;28;20472;-63
2023/01/18 02:32:37;;;;;;;3.77;3.10;;;;;;;;;;5070719;28;20447;-63
2023/01/18 02:35:07;;;;;;;6.97;4.03;;;;;;;;;;5072633;28;20887;-63
2023/01/18 02:37:41;;;;;;;4.03;3.53;;;;;;;;;;5066480;28;20508;-63
2023/01/18 02:40:14;;;;;;;5.27;3.40;;;;;;;;;;5074729;28;20436;-63
2023/01/18 02:48:20;;;;;;;4.60;3.50;;;;;;;;;;5073523;28;20437;-64
2023/01/18 02:50:48;;;;;;;6.17;4.03;;;;;;;;;;5075995;28;20456;-63
2023/01/18 02:53:16;;;;;;;6.73;4.23;;;;;;;;;;5070985;28;20460;-63
2023/01/18 02:55:45;;;;;;;6.40;3.60;;;;;;;;;;5069494;28;20440;-63
2023/01/18 02:58:16;;;;;;;4.70;3.53;;;;;;;;;;5077103;28;20436;-63
2023/01/18 03:00:47;;;;;;;4.00;3.20;;;;;;;;;;5078081;28;20441;-63
2023/01/18 03:03:16;;;;;;;5.33;3.67;;;;;;;;;;5074557;28;20521;-63
2023/01/18 03:05:45;;;;;;;4.83;3.57;;;;;;;;;;5072305;28;20436;-64
2023/01/18 03:08:15;;;;;;;6.87;3.77;;;;;;;;;;5075061;28;20440;-63
2023/01/18 03:10:50;;;;;;;5.87;3.60;;;;;;;;;;5077057;28;20498;-63
2023/01/18 03:13:24;;;;;;;3.87;3.50;;;;;;;;;;5070258;28;20524;-63
2023/01/18 03:15:56;;;;;;;3.27;2.87;;;;;;;;;;5077231;28;20939;-63
2023/01/18 03:18:29;;;;;;;9.57;4.20;;;;;;;;;;5080542;28;20810;-63
2023/01/18 03:20:57;;;;;;;4.07;2.77;;;;;;;;;;5080502;28;20472;-63
2023/01/18 03:23:40;;;;;;;5.00;3.37;;;;;;;;;;5080450;28;21109;-63
2023/01/18 03:26:09;;;;;;;4.80;3.30;;;;;;;;;;5080866;28;20440;-63
2023/01/18 03:34:19;;;;;;;4.10;3.00;;;;;;;;;;5080434;28;20534;-64
2023/01/18 03:36:51;;;;;;;4.23;3.13;;;;;;;;;;5080568;28;20518;-63
2023/01/18 03:39:20;;;;;;;3.57;2.80;;;;;;;;;;5080735;28;20210;-63
2023/01/18 03:41:49;;;;;;;4.63;2.90;;;;;;;;;;5080759;28;20479;-64
2023/01/18 03:44:20;;;;;;;3.20;2.50;;;;;;;;;;5080755;28;20251;-64
2023/01/18 03:46:49;;;;;;;3.63;2.80;;;;;;;;;;5080766;28;20234;-63
2023/01/18 03:49:18;;;;;;;3.43;2.37;;;;;;;;;;5080412;28;20209;-63
2023/01/18 03:51:50;;;;;;;5.83;3.17;;;;;;;;;;5080453;28;20202;-63
2023/01/18 03:54:21;;;;;;;5.07;2.90;;;;;;;;;;5080259;28;20226;-63
2023/01/18 03:56:50;;;;;;;3.20;2.47;;;;;;;;;;5080329;28;20254;-63
2023/01/18 03:59:20;;;;;;;3.33;2.40;;;;;;;;;;5080220;28;20232;-63
2023/01/18 04:01:49;;;;;;;6.00;2.57;;;;;;;;;;5080555;28;20242;-63
2023/01/18 04:04:17;;;;;;;3.33;2.60;;;;;;;;;;5080174;28;20234;-64
2023/01/18 04:06:45;;;;;;;2.83;2.07;;;;;;;;;;5080210;28;20217;-63
2023/01/18 04:09:13;;;;;;;2.90;2.27;;;;;;;;;;5079856;28;20294;-64
2023/01/18 04:11:41;;;;;;;3.67;2.30;;;;;;;;;;5080420;28;20213;-63
2023/01/18 04:14:09;;;;;;;3.13;2.43;;;;;;;;;;5080242;28;20233;-63
2023/01/18 04:16:37;;;;;;;3.63;2.30;;;;;;;;;;5079953;28;20219;-63
2023/01/18 04:19:07;;;;;;;4.13;3.20;;;;;;;;;;5079901;28;20665;-63
2023/01/18 04:21:37;;;;;;;4.60;2.70;;;;;;;;;;5079745;28;20213;-63
2023/01/18 04:24:05;;;;;;;2.43;2.23;;;;;;;;;;5079512;28;20226;-63
2023/01/18 04:26:34;;;;;;;4.87;3.17;;;;;;;;;;5079855;28;20203;-63
2023/01/18 04:29:02;;;;;;;3.20;2.67;;;;;;;;;;5080013;28;20232;-63
2023/01/18 04:31:30;;;;;;;5.27;3.50;;;;;;;;;;5079995;28;20206;-63
2023/01/18 04:33:58;;;;;;;4.73;3.27;;;;;;;;;;5079767;28;20273;-64
2023/01/18 04:36:28;;;;;;;7.50;3.77;;;;;;;;;;5079367;28;20202;-63
2023/01/18 04:38:56;;;;;;;5.63;3.63;;;;;;;;;;5079847;28;20343;-63
2023/01/18 04:41:24;;;;;;;7.70;3.80;;;;;;;;;;5079456;28;20218;-63
2023/01/18 04:43:52;;;;;;;7.63;4.03;;;;;;;;;;5079454;28;20226;-63
2023/01/18 04:46:20;;;;;;;10.03;4.37;;;;;;;;;;5079724;28;20289;-64
2023/01/18 04:48:51;;;;;;;10.53;4.60;;;;;;;;;;5079481;28;20588;-63
2023/01/18 04:51:20;;;;;;;5.40;3.43;;;;;;;;;;5079010;28;20708;-63
2023/01/18 04:53:49;;;;;;;7.10;3.70;;;;;;;;;;5079490;28;20318;-63
2023/01/18 04:56:17;;;;;;;6.57;4.10;;;;;;;;;;5079936;28;20210;-63
2023/01/18 04:58:45;;;;;;;6.17;3.80;;;;;;;;;;5079345;28;20226;-63
2023/01/18 05:01:15;;;;;;;8.23;3.70;;;;;;;;;;5079366;28;20210;-63
2023/01/18 05:03:43;;;;;;;5.50;3.77;;;;;;;;;;5078961;28;20229;-63
2023/01/18 05:06:12;;;;;;;4.03;3.13;;;;;;;;;;5078937;28;20241;-63
2023/01/18 05:08:40;;;;;;;5.33;3.73;;;;;;;;;;5079213;28;20445;-64
2023/01/18 05:11:11;;;;;;;3.97;3.57;;;;;;;;;;5079171;28;20447;-63
2023/01/18 05:13:39;;;;;;;6.87;3.77;;;;;;;;;;5079347;28;20468;-63
2023/01/18 05:16:08;;;;;;;4.97;3.77;;;;;;;;;;5078779;28;20891;-63
2023/01/18 05:18:36;;;;;;;5.73;3.80;;;;;;;;;;5078575;28;20503;-63
2023/01/18 05:21:04;;;;;;;6.37;3.67;;;;;;;;;;5077485;28;20444;-63
2023/01/18 05:23:32;;;;;;;7.33;4.23;;;;;;;;;;5078791;28;20500;-63
2023/01/18 05:26:00;;;;;;;6.10;4.90;;;;;;;;;;5078927;28;20203;-63
2023/01/18 05:28:29;;;;;;;6.50;4.47;;;;;;;;;;5078485;28;20210;-63
2023/01/18 05:30:57;;;;;;;3.77;3.47;;;;;;;;;;5078509;28;20704;-63
2023/01/18 05:33:25;;;;;;;4.13;3.13;;;;;;;;;;5078329;28;20734;-63
2023/01/18 05:35:54;;;;;;;5.93;4.10;;;;;;;;;;5077925;28;20531;-63
2023/01/18 05:38:22;;;;;;;5.10;3.70;;;;;;;;;;5078577;28;20487;-63
2023/01/18 05:40:52;;;;;;;6.77;3.93;;;;;;;;;;5078358;28;20473;-63
2023/01/18 05:43:20;;;;;;;5.57;3.73;;;;;;;;;;5078412;28;20464;-63
2023/01/18 05:45:50;;;;;;;7.50;3.53;;;;;;;;;;5078493;28;20441;-63
2023/01/18 05:48:18;;;;;;;4.40;3.67;;;;;;;;;;5078415;28;20437;-63
2023/01/18 05:50:47;;;;;;;6.40;3.97;;;;;;;;;;5077801;28;20468;-63
2023/01/18 05:53:16;;;;;;;4.73;3.63;;;;;;;;;;5077980;28;20518;-63
2023/01/18 05:55:44;;;;;;;8.23;3.40;;;;;;;;;;5078091;28;20955;-63
2023/01/18 05:58:12;;;;;;;6.03;3.60;;;;;;;;;;5078198;28;20490;-63
2023/01/18 06:00:40;;;;;;;6.17;3.87;;;;;;;;;;5078203;28;20523;-62
2023/01/18 06:03:09;;;;;;;3.90;3.60;;;;;;;;;;5078137;28;20457;-63
2023/01/18 06:05:37;;;;;;;5.30;3.87;;;;;;;;;;5077755;28;20502;-63
2023/01/18 06:08:05;;;;;;;4.23;3.40;;;;;;;;;;5077897;28;20437;-63
2023/01/18 06:10:33;;;;;;;5.27;4.07;;;;;;;;;;5077998;28;20936;-63
2023/01/18 06:13:01;;;;;;;6.53;4.03;;;;;;;;;;5078109;28;20479;-63
2023/01/18 06:15:29;;;;;;;5.57;3.33;;;;;;;;;;5077934;28;20497;-63
2023/01/18 06:17:58;;;;;;;6.37;4.07;;;;;;;;;;5078414;28;20508;-63
2023/01/18 06:20:29;;;;;;;4.83;3.97;;;;;;;;;;5077283;28;21010;-63
2023/01/18 06:22:57;;;;;;;6.27;3.10;;;;;;;;;;5077880;28;20471;-63
2023/01/18 06:25:26;;;;;;;4.97;3.50;;;;;;;;;;5077880;28;20440;-63
2023/01/18 06:27:54;;;;;;;5.53;3.30;;;;;;;;;;5077700;28;20966;-62
2023/01/18 06:30:22;;;;;;;5.67;4.17;;;;;;;;;;5077728;28;20460;-63
2023/01/18 06:32:50;;;;;;;5.17;3.43;;;;;;;;;;5077538;28;20465;-63
2023/01/18 06:35:19;;;;;;;3.40;3.10;;;;;;;;;;5077044;28;20499;-63
2023/01/18 06:37:48;;;;;;;4.07;3.67;;;;;;;;;;5077469;28;21058;-63
2023/01/18 06:40:16;;;;;;;5.67;4.30;;;;;;;;;;5077689;28;20450;-62
2023/01/18 06:42:47;;;;;;;4.37;3.13;;;;;;;;;;5077426;28;20543;-63
2023/01/18 06:45:18;;;;;;;7.20;3.97;;;;;;;;;;5077767;28;20444;-63
2023/01/18 06:47:46;;;;;;;4.13;2.93;;;;;;;;;;5077438;28;20476;-63
2023/01/18 06:50:14;;;;;;;3.00;2.77;;;;;;;;;;5077379;28;20445;-63
2023/01/18 06:52:42;;;;;;;4.37;2.83;;;;;;;;;;5077300;28;20492;-63
2023/01/18 06:55:12;;;;;;;4.60;3.67;;;;;;;;;;5077475;28;20454;-63
2023/01/18 06:57:40;;;;;;;3.20;2.87;;;;;;;;;;5077530;28;20479;-63
2023/01/18 07:00:09;;;;;;;3.73;3.30;;;;;;;;;;5077555;28;20528;-63
2023/01/18 07:02:37;;;;;;;6.27;3.47;;;;;;;;;;5077073;28;20943;-63
2023/01/18 07:05:06;;;;;;;4.43;3.17;;;;;;;;;;5076876;28;20935;-63
2023/01/18 07:07:34;;;;;;;3.77;2.90;;;;;;;;;;5077231;28;20928;-63
2023/01/18 07:10:02;;;;;;;3.33;3.03;;;;;;;;;;5077261;28;20440;-63
2023/01/18 07:12:31;;;;;;;3.50;2.90;;;;;;;;;;5077089;28;20966;-63
2023/01/18 07:14:59;;;;;;;3.77;2.93;;;;;;;;;;5077197;28;20511;-63
2023/01/18 07:17:49;;;;;;;3.37;3.07;;;;;;;;;;5077232;28;20860;-62
2023/01/18 07:20:18;;;;;;;4.80;3.50;;;;;;;;;;5076896;28;20437;-63
2023/01/18 07:22:50;;;;;;;5.30;3.37;;;;;;;;;;5077060;28;20987;-63
2023/01/18 07:25:19;;;;;;;5.07;3.27;;;;;;;;;;5077271;28;20462;-63
2023/01/18 07:27:49;;;;;;;3.47;3.10;;;;;;;;;;5077040;28;20440;-63
2023/01/18 07:30:17;;;;;;;3.50;3.17;;;;;;;;;;5077143;28;20444;-64
2023/01/18 07:32:47;;;;;;;5.20;3.10;;;;;;;;;;5077215;28;20465;-63
2023/01/18 07:35:16;;;;;;;4.27;3.30;;;;;;;;;;5076645;28;20551;-63
2023/01/18 07:37:47;;;;;;;3.90;2.97;;;;;;;;;;5077184;28;20472;-63
2023/01/18 07:40:16;;;;;;;6.33;3.07;;;;;;;;;;5076843;28;20484;-63
2023/01/18 07:42:44;;;;;;;3.30;3.00;;;;;;;;;;5077018;28;20453;-63
2023/01/18 07:45:14;;;;;;;3.67;3.07;;;;;;;;;;5079936;28;20527;-63
2023/01/18 07:47:42;;;;;;;4.13;3.73;;;;;;;;;;5080620;28;20444;-63
2023/01/18 07:50:10;;;;;;;5.47;3.13;;;;;;;;;;5080339;28;20451;-63
2023/01/18 07:52:38;;;;;;;3.80;3.13;;;;;;;;;;5080423;28;20491;-63
2023/01/18 07:55:07;;;;;;;5.20;3.07;;;;;;;;;;5080349;28;20444;-63
2023/01/18 07:57:34;;;;;;;3.23;2.50;;;;;;;;;;5080557;28;20445;-63
2023/01/18 08:00:03;;;;;;;4.23;2.90;;;;;;;;;;5076523;28;20537;-63
2023/01/18 08:02:32;;;;;;;5.23;2.53;;;;;;;;;;5080061;28;20477;-63
2023/01/18 08:05:01;;;;;;;4.83;3.03;;;;;;;;;;5079650;28;20451;-63
2023/01/18 08:07:31;;;;;;;4.47;3.30;;;;;;;;;;5079849;28;20461;-63
2023/01/18 08:09:59;;;;;;;2.80;2.60;;;;;;;;;;5079937;28;20443;-63
2023/01/18 08:12:27;;;;;;;3.87;3.30;;;;;;;;;;5079855;28;20980;-62
2023/01/18 08:14:55;;;;;;;4.23;3.83;;;;;;;;;;5080111;28;20451;-63
2023/01/18 08:17:23;;;;;;;6.27;3.87;;;;;;;;;;5079781;28;20447;-63
2023/01/18 08:19:53;;;;;;;7.97;4.07;;;;;;;;;;5079719;28;20563;-63
2023/01/18 08:22:21;;;;;;;7.30;4.57;;;;;;;;;;5079661;28;20443;-63
2023/01/18 08:24:48;;;;;;;8.23;4.47;;;;;;;;;;5079674;28;20870;-63
2023/01/18 08:27:16;;;;;;;8.37;4.50;;;;;;;;;;5079673;28;20531;-62
2023/01/18 08:29:45;;;;;;;5.40;4.13;;;;;;;;;;5079608;28;20440;-62
2023/01/18 08:32:13;;;;;;;5.70;4.43;;;;;;;;;;5079949;28;20440;-62
2023/01/18 08:34:41;;;;;;;4.97;4.27;;;;;;;;;;5079205;28;20480;-62
2023/01/18 08:37:12;;;;;;;4.40;4.00;;;;;;;;;;5079523;28;20437;-66
2023/01/18 08:39:40;;;;;;;3.13;2.00;;;;;;;;;;5079511;28;20935;-66
2023/01/18 08:42:11;;;;;;;2.67;1.77;;;;;;;;;;5079395;28;20440;-68
2023/01/18 08:44:39;;;;;;;1.70;1.60;;;;;;;;;;5079268;28;20900;-66
2023/01/18 08:47:07;;;;;;;2.10;1.90;;;;;;;;;;5079735;28;20508;-66
2023/01/18 08:49:35;;;;;;;1.93;1.70;;;;;;;;;;5079375;28;20444;-66
2023/01/18 08:52:03;;;;;;;1.73;1.63;;;;;;;;;;5079333;28;20815;-66
2023/01/18 08:54:32;;;;;;;6.23;1.73;;;;;;;;;;5079100;28;20552;-66
2023/01/18 08:57:01;;;;;;;2.20;1.90;;;;;;;;;;5079432;28;20441;-66
2023/01/18 08:59:29;;;;;;;2.03;1.87;;;;;;;;;;5079214;28;20508;-66
2023/01/18 09:01:57;;;;;;;1.60;1.50;;;;;;;;;;5079071;28;20449;-66
2023/01/18 09:04:26;;;;;;;4.47;1.50;;;;;;;;;;5079052;28;20468;-66
2023/01/18 09:06:54;;;;;;;1.30;1.30;;;;;;;;;;5079040;28;20472;-65
2023/01/18 09:09:22;;;;;;;1.10;1.10;;;;;;;;;;5073166;28;20448;-65
2023/01/18 09:11:52;;;;;;;1.13;1.13;;;;;;;;;;5084956;28;20437;-64
2023/01/18 09:14:20;;;;;;;1.50;1.40;;;;;;;;;;5083412;28;20554;-65
2023/01/18 09:16:48;;;;;;;1.97;1.27;;;;;;;;;;5084607;28;20456;-63
2023/01/18 09:19:16;;;;;;;1.30;1.20;;;;;;;;;;5078269;28;21002;-63
2023/01/18 09:21:47;;;;;;;1.47;1.13;;;;;;;;;;5078130;28;21273;-63
2023/01/18 09:24:15;;;;;;;0.93;0.93;;;;;;;;;;5065280;28;20464;-63
2023/01/18 09:26:45;;;;;;;1.00;1.00;;;;;;;;;;5084699;28;20442;-63
2023/01/18 09:29:15;;;;;;;3.40;2.20;;;;;;;;;;5078573;28;20486;-63
2023/01/18 09:31:43;;;;;;;1.53;1.43;;;;;;;;;;5078716;28;20474;-63
2023/01/18 09:34:12;;;;;;;1.50;1.40;;;;;;;;;;5077748;28;20472;-63
2023/01/18 09:36:46;;;;;;;1.57;1.47;;;;;;;;;;5078353;28;20452;-63
2023/01/18 09:39:14;;;;;;;3.23;1.70;;;;;;;;;;5075006;28;20804;-63
2023/01/18 09:41:43;;;;;;;1.60;1.50;;;;;;;;;;5078070;28;20489;-62
2023/01/18 09:44:17;;;;;;;2.27;2.17;;;;;;;;;;5078317;28;20474;-63
2023/01/18 09:46:45;;;;;;;3.23;1.50;;;;;;;;;;5079483;28;20435;-63
2023/01/18 09:49:15;;;;;;;1.80;1.40;;;;;;;;;;5078207;28;20440;-63
2023/01/18 09:51:47;;;;;;;1.23;1.20;;;;;;;;;;5077493;28;20535;-62
2023/01/18 09:54:22;;;;;;;1.03;1.03;;;;;;;;;;5077895;28;20504;-63
2023/01/18 09:56:52;;;;;;;1.30;1.20;;;;;;;;;;5078151;28;20456;-62
2023/01/18 09:59:27;;;;;;;1.90;1.37;;;;;;;;;;5073244;28;20798;-63
2023/01/18 10:01:55;;;;;;;1.67;1.57;;;;;;;;;;5077313;28;20530;-62
2023/01/18 10:04:25;;;;;;;1.87;1.57;;;;;;;;;;5065316;28;20547;-63
2023/01/18 10:06:55;;;;;;;1.20;1.17;;;;;;;;;;5077368;28;20475;-62
2023/01/18 10:09:25;;;;;;;1.80;1.50;;;;;;;;;;5078211;28;20448;-62
2023/01/18 10:11:58;;;;;;;2.77;1.60;;;;;;;;;;5078001;28;20527;-62
2023/01/18 10:14:38;;;;;;;1.83;1.67;;;;;;;;;;5077713;28;20483;-62
2023/01/18 10:17:10;;;;;;;1.73;1.60;;;;;;;;;;5078177;28;20447;-62
2023/01/18 10:19:39;;;;;;;5.67;2.43;;;;;;;;;;5077367;28;20472;-62
2023/01/18 10:22:08;;;;;;;2.30;1.63;;;;;;;;;;5077612;28;20451;-62
2023/01/18 10:24:48;;;;;;;1.87;1.77;;;;;;;;;;5078013;28;20551;-61
2023/01/18 10:27:34;;;;;;;2.83;1.77;;;;;;;;;;5077912;28;20451;-63
2023/01/18 10:30:15;;;;;;;2.63;2.00;;;;;;;;;;5077584;28;20445;-62
2023/01/18 10:32:47;;;;;;;1.83;1.60;;;;;;;;;;5077612;28;20499;-62
2023/01/18 10:35:18;;;;;;;2.77;1.90;;;;;;;;;;5077112;28;20562;-63
2023/01/18 10:37:47;;;;;;;1.70;1.60;;;;;;;;;;5077630;28;20444;-62
2023/01/18 10:40:15;;;;;;;3.00;2.80;;;;;;;;;;5077471;28;21066;-63
2023/01/18 10:42:45;;;;;;;2.87;2.13;;;;;;;;;;5077649;28;20484;-63
2023/01/18 10:45:20;;;;;;;1.80;1.70;;;;;;;;;;5077342;28;20466;-63
2023/01/18 10:47:48;;;;;;;1.60;1.47;;;;;;;;;;5077752;28;20450;-63
2023/01/18 10:50:17;;;;;;;2.17;1.60;;;;;;;;;;5077085;28;20491;-63
2023/01/18 10:52:45;;;;;;;1.50;1.40;;;;;;;;;;5073383;28;20543;-63
2023/01/18 10:55:15;;;;;;;1.40;1.30;;;;;;;;;;5077511;28;20878;-63
2023/01/18 10:57:43;;;;;;;1.80;1.13;;;;;;;;;;5077589;28;20448;-63
2023/01/18 11:00:20;;;;;;;3.67;1.93;;;;;;;;;;5077206;28;21070;-62
2023/01/18 11:02:50;;;;;;;2.60;1.57;;;;;;;;;;5077607;28;20463;-64
2023/01/18 11:05:26;;;;;;;1.70;1.53;;;;;;;;;;5077197;28;20445;-63
2023/01/18 11:08:09;;;;;;;2.03;1.30;;;;;;;;;;5077484;28;20440;-63
2023/01/18 11:10:38;;;;;;;2.10;1.33;;;;;;;;;;5077050;28;21015;-63
2023/01/18 11:13:22;;;;;;;1.37;1.00;;;;;;;;;;5077201;28;20540;-62
2023/01/18 11:16:02;;;;;;;1.57;1.47;;;;;;;;;;5077197;28;20883;-63
2023/01/18 11:18:30;;;;;;;2.50;1.23;;;;;;;;;;5077450;28;20468;-62
2023/01/18 11:20:58;;;;;;;1.77;1.33;;;;;;;;;;5080790;28;20571;-63
2023/01/18 11:23:30;;;;;;;1.50;1.40;;;;;;;;;;5081203;28;20464;-63
2023/01/18 11:25:59;;;;;;;7.57;2.33;;;;;;;;;;5081121;28;20444;-62
2023/01/18 11:28:29;;;;;;;2.27;1.47;;;;;;;;;;5081041;28;20475;-62
2023/01/18 11:31:00;;;;;;;1.67;1.57;;;;;;;;;;5081126;28;20436;-62
2023/01/18 11:33:29;;;;;;;1.00;0.90;;;;;;;;;;5080605;28;20464;-65
2023/01/18 11:35:59;;;;;;;1.30;1.10;;;;;;;;;;5080104;28;20529;-66
2023/01/18 11:38:28;;;;;;;0.87;0.87;;;;;;;;;;5080704;28;20449;-65
2023/01/18 11:41:03;;;;;;;1.13;1.13;;;;;;;;;;5075740;28;20478;-64
2023/01/18 11:43:33;;;;;;;3.47;1.80;;;;;;;;;;5080585;28;20547;-64
2023/01/18 11:46:05;;;;;;;1.67;1.20;;;;;;;;;;5080307;28;20444;-64
2023/01/18 11:48:38;;;;;;;3.03;1.60;;;;;;;;;;5080328;28;20444;-65
2023/01/18 11:51:10;;;;;;;2.03;1.33;;;;;;;;;;5080275;28;20450;-64
2023/01/18 11:53:42;;;;;;;0.80;0.80;;;;;;;;;;5080656;28;20472;-64
2023/01/18 11:56:13;;;;;;;2.13;1.40;;;;;;;;;;5080318;28;20872;-64
2023/01/18 11:58:41;;;;;;;1.33;1.23;;;;;;;;;;5080334;28;20475;-64
2023/01/18 12:01:28;;;;;;;3.03;1.30;;;;;;;;;;5080074;28;20476;-65
2023/01/18 12:03:59;;;;;;;2.17;1.20;;;;;;;;;;5080157;28;20822;-65
2023/01/18 12:06:37;;;;;;;1.00;1.00;;;;;;;;;;5079973;28;20520;-65
2023/01/18 12:09:13;;;;;;;2.70;1.10;;;;;;;;;;5080154;28;20448;-64
2023/01/18 12:11:56;;;;;;;1.47;1.13;;;;;;;;;;5080409;28;20483;-64
2023/01/18 12:14:49;;;;;;;1.50;1.40;;;;;;;;;;5080228;28;20498;-64
2023/01/18 12:17:32;;;;;;;1.80;1.70;;;;;;;;;;5078403;28;20453;-64
2023/01/18 12:20:17;;;;;;;1.60;1.50;;;;;;;;;;5071782;28;20444;-64
2023/01/18 12:23:04;;;;;;;2.70;1.67;;;;;;;;;;5067635;28;20563;-65
2023/01/18 12:25:41;;;;;;;1.70;1.60;;;;;;;;;;5079618;28;20472;-65
2023/01/18 12:28:15;;;;;;;5.17;2.13;;;;;;;;;;5080064;28;20448;-65
2023/01/18 12:30:49;;;;;;;2.30;2.10;;;;;;;;;;5079338;28;21021;-65
2023/01/18 12:33:27;;;;;;;3.17;2.77;;;;;;;;;;5079805;28;20555;-65
2023/01/18 12:36:19;;;;;;;2.53;2.30;;;;;;;;;;5079585;28;20444;-65
2023/01/18 12:38:50;;;;;;;3.30;2.57;;;;;;;;;;5079854;28;20444;-65
2023/01/18 12:41:33;;;;;;;3.20;2.90;;;;;;;;;;5079733;28;20506;-65
2023/01/18 12:44:09;;;;;;;3.10;2.60;;;;;;;;;;5068505;28;20471;-65
2023/01/18 12:46:39;;;;;;;5.27;2.60;;;;;;;;;;5079457;28;20450;-65
2023/01/18 12:49:16;;;;;;;6.13;2.70;;;;;;;;;;5079759;28;20454;-65
2023/01/18 12:51:44;;;;;;;4.43;2.80;;;;;;;;;;5079329;28;20441;-65
2023/01/18 12:54:15;;;;;;;3.50;2.60;;;;;;;;;;5079076;28;20464;-65
2023/01/18 12:56:45;;;;;;;4.50;3.03;;;;;;;;;;5079266;28;20939;-64
2023/01/18 12:59:16;;;;;;;4.17;2.90;;;;;;;;;;5079128;28;20875;-64
2023/01/18 13:01:50;;;;;;;6.03;2.97;;;;;;;;;;5079330;28;20484;-64
2023/01/18 13:04:23;;;;;;;4.93;2.80;;;;;;;;;;5078760;28;20531;-64
2023/01/18 13:06:52;;;;;;;2.70;2.50;;;;;;;;;;5079398;28;20452;-65
2023/01/18 13:09:22;;;;;;;4.57;2.30;;;;;;;;;;5078921;28;20445;-65
2023/01/18 13:11:50;;;;;;;5.87;3.00;;;;;;;;;;5078970;28;20455;-64
2023/01/18 13:14:21;;;;;;;4.93;2.57;;;;;;;;;;5079084;28;20492;-65
2023/01/18 13:16:54;;;;;;;3.53;2.60;;;;;;;;;;5079097;28;20531;-65
2023/01/18 13:19:28;;;;;;;2.80;2.60;;;;;;;;;;5078319;28;20476;-65
2023/01/18 13:22:00;;;;;;;4.20;2.73;;;;;;;;;;5078971;28;20480;-65
2023/01/18 13:24:45;;;;;;;3.73;2.70;;;;;;;;;;5078897;28;20496;-65
2023/01/18 13:27:14;;;;;;;9.33;3.27;;;;;;;;;;5078627;28;20480;-65
2023/01/18 13:29:42;;;;;;;2.70;2.43;;;;;;;;;;5074002;28;20445;-65
2023/01/18 13:32:26;;;;;;;3.63;2.53;;;;;;;;;;5078649;28;20466;-65
2023/01/18 13:35:00;;;;;;;3.57;3.23;;;;;;;;;;5077974;28;20905;-64
2023/01/18 13:37:48;;;;;;;2.80;2.60;;;;;;;;;;5078666;28;20445;-64
2023/01/18 13:40:27;;;;;;;3.77;2.70;;;;;;;;;;5078561;28;20502;-65
2023/01/18 13:42:55;;;;;;;6.17;3.00;;;;;;;;;;5077384;28;20491;-64
2023/01/18 13:45:23;;;;;;;5.90;3.13;;;;;;;;;;5065301;28;20535;-65
2023/01/18 13:47:56;;;;;;;7.00;2.80;;;;;;;;;;5078462;28;20445;-64
2023/01/18 13:50:46;;;;;;;3.60;2.77;;;;;;;;;;5077797;28;20448;-64
2023/01/18 13:53:24;;;;;;;3.97;3.23;;;;;;;;;;5078132;28;20460;-64
2023/01/18 13:56:11;;;;;;;6.80;3.80;;;;;;;;;;5078346;28;20448;-64
2023/01/18 13:58:51;;;;;;;8.37;4.17;;;;;;;;;;5078305;28;20445;-64
2023/01/18 14:01:21;;;;;;;4.73;3.67;;;;;;;;;;5077985;28;20445;-64
2023/01/18 14:03:51;;;;;;;5.27;3.30;;;;;;;;;;5078228;28;20543;-65
2023/01/18 14:06:24;;;;;;;4.00;3.50;;;;;;;;;;5077509;28;20971;-64
2023/01/18 14:08:53;;;;;;;6.17;4.30;;;;;;;;;;5077788;28;20444;-64
2023/01/18 14:11:22;;;;;;;5.20;3.87;;;;;;;;;;5078152;28;20445;-64
2023/01/18 14:14:07;;;;;;;6.30;4.17;;;;;;;;;;5077714;28;20608;-64
2023/01/18 14:16:36;;;;;;;4.10;3.30;;;;;;;;;;5077679;28;20440;-64
2023/01/18 14:19:15;;;;;;;4.20;3.77;;;;;;;;;;5077713;28;20936;-64
2023/01/18 14:21:59;;;;;;;4.47;3.40;;;;;;;;;;5077814;28;20455;-64
2023/01/18 14:24:32;;;;;;;8.30;3.97;;;;;;;;;;5077670;28;20844;-64
2023/01/18 14:27:01;;;;;;;4.80;3.30;;;;;;;;;;5077927;28;20472;-64
2023/01/18 14:29:32;;;;;;;3.47;3.17;;;;;;;;;;5077713;28;20928;-64
2023/01/18 14:32:02;;;;;;;3.47;3.17;;;;;;;;;;5077563;28;20463;-64
2023/01/18 14:34:37;;;;;;;4.73;3.60;;;;;;;;;;5075164;28;20520;-64
2023/01/18 14:37:20;;;;;;;10.43;5.97;;;;;;;;;;5077423;28;21014;-64
2023/01/18 14:40:01;;;;;;;3.50;3.07;;;;;;;;;;5077467;28;20845;-64
2023/01/18 14:42:33;;;;;;;4.53;3.27;;;;;;;;;;5077245;28;20575;-65
2023/01/18 14:45:02;;;;;;;3.53;2.80;;;;;;;;;;5077700;28;20441;-64
2023/01/18 14:47:32;;;;;;;4.13;3.47;;;;;;;;;;5077436;28;20936;-64
2023/01/18 14:50:02;;;;;;;3.07;2.80;;;;;;;;;;5077384;28;20464;-64
2023/01/18 14:52:31;;;;;;;2.70;2.40;;;;;;;;;;5077717;28;20447;-64
2023/01/18 14:55:01;;;;;;;3.93;2.90;;;;;;;;;;5081809;28;20850;-64
2023/01/18 14:57:29;;;;;;;5.10;2.50;;;;;;;;;;5081846;28;20476;-64
2023/01/18 15:00:07;;;;;;;5.70;3.30;;;;;;;;;;5079426;28;20505;-64
2023/01/18 15:02:38;;;;;;;3.30;2.60;;;;;;;;;;5076140;28;20909;-64
2023/01/18 15:05:09;;;;;;;5.10;3.10;;;;;;;;;;5081023;28;20896;-64
2023/01/18 15:07:38;;;;;;;4.67;3.43;;;;;;;;;;5081219;28;20454;-64
2023/01/18 15:10:08;;;;;;;3.63;2.70;;;;;;;;;;5081507;28;20440;-64
2023/01/18 15:12:38;;;;;;;6.47;2.93;;;;;;;;;;5081505;28;20498;-64
2023/01/18 15:15:07;;;;;;;3.83;2.97;;;;;;;;;;5081235;28;20530;-64
2023/01/18 15:17:36;;;;;;;5.70;3.37;;;;;;;;;;5081252;28;20472;-64
2023/01/18 15:20:06;;;;;;;6.37;3.03;;;;;;;;;;5080676;28;20951;-64
2023/01/18 15:22:39;;;;;;;4.30;3.30;;;;;;;;;;5081135;28;20537;-64
2023/01/18 15:25:16;;;;;;;11.80;4.17;;;;;;;;;;5081216;28;20440;-64
2023/01/18 15:27:48;;;;;;;8.23;3.20;;;;;;;;;;5080822;28;21099;-64
2023/01/18 15:30:17;;;;;;;3.77;3.10;;;;;;;;;;5080917;28;20458;-64
2023/01/18 15:32:46;;;;;;;4.60;3.20;;;;;;;;;;5080677;28;20574;-64
2023/01/18 15:35:15;;;;;;;3.63;2.70;;;;;;;;;;5080205;28;20476;-64